Station Historical Data
Daily Summary for November 2, 2017 Units:  English    Metric   Both
« Previous Day
Next Day »
Daily Weekly Monthly Yearly Custom
  High: Low: Average:
Temperature: 64.2 °F 43.7 °F 57.2 °F
Dew Point: 55.3 °F 39.8 °F 51.3 °F
Humidity: 92% 71% 81%
Wind Speed: 13.0mph 0.0mph 4.2mph
Wind Gust: 19.0mph - -
Wind- - SSW
Pressure: 30.09 in 29.93 in -
Precipitation: 0.00 in    
Historical Graphs
 
 
Tabular Data for November 2, 2017
Time Temperature Dew Point Pressure Wind Wind Speed Wind Gust Humidity Rainfall Rate (Hourly)
00:04 43.7 °F 39.8 °F 30.09 in Calm     86% 0.00 in
00:09 43.7 °F 40.1 °F 30.09 in Calm     87% 0.00 in
00:14 43.8 °F 40.2 °F 30.08 in Calm     87% 0.00 in
00:19 43.9 °F 40.3 °F 30.08 in Calm     87% 0.00 in
00:24 44.0 °F 40.4 °F 30.08 in Calm     87% 0.00 in
00:29 44.1 °F 40.5 °F 30.08 in Calm     87% 0.00 in
00:34 44.2 °F 40.6 °F 30.08 in Calm     87% 0.00 in
00:39 44.3 °F 40.7 °F 30.08 in Calm     87% 0.01 in
00:44 44.4 °F 40.8 °F 30.08 in Calm     87% 0.01 in
00:49 44.4 °F 41.1 °F 30.08 in Calm     88% 0.01 in
00:54 44.5 °F 41.2 °F 30.08 in Calm     88% 0.01 in
00:59 44.5 °F 41.2 °F 30.08 in Calm     88% 0.02 in
01:04 44.5 °F 41.2 °F 30.08 in Calm     88% 0.02 in
01:09 44.6 °F 41.3 °F 30.08 in Calm     88% 0.03 in
01:14 44.6 °F 41.3 °F 30.08 in Calm     88% 0.03 in
01:19 44.7 °F 41.4 °F 30.07 in Calm     88% 0.04 in
01:24 44.7 °F 41.4 °F 30.07 in Calm     88% 0.04 in
01:29 44.8 °F 41.5 °F 30.07 in Calm     88% 0.05 in
01:34 44.9 °F 41.6 °F 30.06 in Calm     88% 0.05 in
01:39 44.9 °F 41.6 °F 30.05 in Calm     88% 0.04 in
01:44 45.0 °F 41.7 °F 30.05 in Calm   5.0 mph 88% 0.05 in
01:49 45.0 °F 41.7 °F 30.05 in Calm   5.0 mph 88% 0.05 in
01:54 45.1 °F 41.8 °F 30.05 in Calm     88% 0.05 in
01:59 45.1 °F 41.8 °F 30.05 in Calm     88% 0.05 in
02:04 45.2 °F 41.9 °F 30.05 in Calm     88% 0.05 in
02:09 45.2 °F 41.9 °F 30.04 in Calm     88% 0.04 in
02:14 45.2 °F 42.2 °F 30.04 in Calm     89% 0.04 in
02:19 45.3 °F 42.2 °F 30.04 in Calm     89% 0.04 in
02:24 45.4 °F 42.3 °F 30.03 in Calm   2.0 mph 89% 0.04 in
02:29 45.4 °F 42.3 °F 30.03 in Calm   2.0 mph 89% 0.03 in
02:34 45.5 °F 42.4 °F 30.03 in Calm     89% 0.03 in
02:39 45.5 °F 42.4 °F 30.03 in Calm     89% 0.04 in
02:44 45.6 °F 42.5 °F 30.03 in Calm     89% 0.03 in
02:49 45.6 °F 42.5 °F 30.03 in Calm     89% 0.03 in
02:54 45.6 °F 42.5 °F 30.03 in Calm     89% 0.03 in
02:59 45.6 °F 42.5 °F 30.03 in Calm     89% 0.02 in
03:04 45.6 °F 42.5 °F 30.03 in Calm     89% 0.03 in
03:09 45.6 °F 42.8 °F 30.03 in Calm     90% 0.04 in
03:14 45.7 °F 42.9 °F 30.02 in Calm     90% 0.04 in
03:19 45.8 °F 43.0 °F 30.02 in Calm     90% 0.04 in
03:24 45.8 °F 43.0 °F 30.02 in Calm     90% 0.04 in
03:29 45.9 °F 43.1 °F 30.02 in Calm     90% 0.04 in
03:34 45.9 °F 43.1 °F 30.02 in Calm     90% 0.05 in
03:39 46.0 °F 43.2 °F 30.02 in Calm     90% 0.04 in
03:44 46.0 °F 43.2 °F 30.01 in Calm     90% 0.05 in
03:49 46.1 °F 43.3 °F 30.01 in Calm     90% 0.05 in
03:54 46.1 °F 43.3 °F 30.00 in Calm     90% 0.06 in
03:59 46.3 °F 43.5 °F 30.01 in Calm     90% 0.06 in
04:04 46.5 °F 43.7 °F 30.01 in Calm     90% 0.06 in
04:09 46.7 °F 44.2 °F 30.00 in Calm     91% 0.05 in
04:14 47.0 °F 44.5 °F 30.00 in Calm     91% 0.06 in
04:19 47.6 °F 45.1 °F 30.00 in SSW 5.0 mph 7.0 mph 91% 0.05 in
04:24 48.5 °F 46.3 °F 30.00 in SSW 2.0 mph 7.0 mph 92% 0.06 in
04:29 49.4 °F 47.2 °F 29.99 in SSW 3.0 mph 8.0 mph 92% 0.07 in
04:34 50.1 °F 47.9 °F 29.99 in South 3.0 mph 8.0 mph 92% 0.08 in
04:39 50.8 °F 48.6 °F 29.98 in SE 3.0 mph 7.0 mph 92% 0.08 in
04:44 51.2 °F 49.0 °F 29.98 in SSW 2.0 mph 12.0 mph 92% 0.07 in
04:49 51.5 °F 49.3 °F 29.98 in SSW 6.0 mph 12.0 mph 92% 0.08 in
04:54 51.8 °F 49.5 °F 29.97 in SE 5.0 mph 12.0 mph 92% 0.07 in
04:59 52.0 °F 49.7 °F 29.97 in South 5.0 mph 12.0 mph 92% 0.07 in
05:04 52.1 °F 49.8 °F 29.98 in South 5.0 mph 12.0 mph 92% 0.06 in
05:09 52.3 °F 50.0 °F 29.98 in South 5.0 mph 14.0 mph 92% 0.08 in
05:14 52.4 °F 50.1 °F 29.98 in SSW 6.0 mph 14.0 mph 92% 0.09 in
05:19 52.6 °F 50.3 °F 29.98 in South 4.0 mph 9.0 mph 92% 0.10 in
05:24 52.8 °F 50.5 °F 29.98 in SW 6.0 mph 14.0 mph 92% 0.09 in
05:29 52.9 °F 50.6 °F 29.98 in SSW 6.0 mph 12.0 mph 92% 0.08 in
05:34 53.0 °F 50.7 °F 29.98 in SSW 6.0 mph 15.0 mph 92% 0.06 in
05:44 53.3 °F 51.0 °F 29.99 in SSW 6.0 mph 13.0 mph 92% 0.07 in
05:49 53.4 °F 50.8 °F 29.99 in SSW 5.0 mph 13.0 mph 91% 0.09 in
05:54 53.5 °F 50.9 °F 29.99 in South 4.0 mph 11.0 mph 91% 0.11 in
05:59 53.6 °F 51.0 °F 30.00 in SW 3.0 mph 15.0 mph 91% 0.11 in
06:04 53.7 °F 51.1 °F 30.01 in SSW 6.0 mph 15.0 mph 91% 0.15 in
06:09 53.7 °F 51.1 °F 30.01 in SW 7.0 mph 19.0 mph 91% 0.17 in
06:14 53.8 °F 51.2 °F 30.01 in SSW 7.0 mph 12.0 mph 91% 0.17 in
06:19 53.8 °F 51.2 °F 30.01 in South 9.0 mph 14.0 mph 91% 0.19 in
06:24 53.7 °F 51.1 °F 30.01 in West 4.0 mph 19.0 mph 91% 0.22 in
06:29 53.6 °F 51.0 °F 30.00 in SW 6.0 mph 15.0 mph 91% 0.24 in
06:34 53.7 °F 51.1 °F 30.01 in SSE 6.0 mph 12.0 mph 91% 0.26 in
06:39 53.6 °F 51.0 °F 30.00 in SSW 5.0 mph 12.0 mph 91% 0.26 in
06:44 53.6 °F 51.0 °F 30.00 in SW 4.0 mph 10.0 mph 91% 0.26 in
06:49 53.6 °F 51.0 °F 30.01 in SW 4.0 mph 11.0 mph 91% 0.23 in
06:54 53.7 °F 51.1 °F 30.00 in SW 4.0 mph 11.0 mph 91% 0.22 in
06:59 53.7 °F 51.1 °F 30.00 in SW 5.0 mph 14.0 mph 91% 0.22 in
07:04 53.7 °F 51.1 °F 30.00 in SSW 5.0 mph 14.0 mph 91% 0.18 in
07:09 53.8 °F 51.2 °F 30.01 in SSW 5.0 mph 14.0 mph 91% 0.16 in
07:14 53.9 °F 51.3 °F 30.01 in SSW 5.0 mph 12.0 mph 91% 0.17 in
07:19 53.9 °F 51.3 °F 30.00 in South 5.0 mph 13.0 mph 91% 0.15 in
07:24 54.0 °F 51.4 °F 30.00 in SW 4.0 mph 13.0 mph 91% 0.12 in
07:29 54.0 °F 51.4 °F 30.01 in SW 5.0 mph 13.0 mph 91% 0.11 in
07:34 54.0 °F 51.4 °F 30.01 in SSW 7.0 mph 15.0 mph 91% 0.09 in
07:39 54.0 °F 51.4 °F 30.01 in South 3.0 mph 11.0 mph 91% 0.09 in
07:44 54.1 °F 51.5 °F 30.01 in SSW 6.0 mph 13.0 mph 91% 0.09 in
07:49 54.1 °F 51.5 °F 30.01 in SSW 6.0 mph 15.0 mph 91% 0.11 in
07:54 54.1 °F 51.5 °F 30.01 in SSW 7.0 mph 15.0 mph 91% 0.10 in
07:59 54.1 °F 51.5 °F 30.02 in SSW 7.0 mph 15.0 mph 91% 0.11 in
08:04 54.1 °F 51.5 °F 30.01 in South 13.0 mph 14.0 mph 91% 0.11 in
08:09 54.2 °F 51.6 °F 30.02 in SW 4.0 mph 11.0 mph 91% 0.09 in
08:14 54.1 °F 51.5 °F 30.02 in SSW 6.0 mph 15.0 mph 91% 0.06 in
08:19 54.2 °F 51.6 °F 30.02 in SSW 6.0 mph 15.0 mph 91% 0.05 in
08:24 54.2 °F 51.6 °F 30.02 in SSW 5.0 mph 10.0 mph 91% 0.05 in
08:29 54.2 °F 51.6 °F 30.02 in SSW 7.0 mph 14.0 mph 91% 0.04 in
08:34 54.3 °F 51.7 °F 30.03 in South 8.0 mph 12.0 mph 91% 0.04 in
08:39 54.4 °F 51.8 °F 30.02 in South 7.0 mph 10.0 mph 91% 0.04 in
08:44 54.4 °F 51.8 °F 30.02 in SSW 8.0 mph 16.0 mph 91% 0.03 in
08:49 54.5 °F 51.9 °F 30.02 in SSW 5.0 mph 16.0 mph 91% 0.01 in
08:54 54.6 °F 52.0 °F 30.02 in SSW 5.0 mph 11.0 mph 91% 0.01 in
08:59 54.7 °F 52.1 °F 30.03 in SSW 4.0 mph 11.0 mph 91% 0.00 in
09:04 54.8 °F 52.2 °F 30.02 in SSW 5.0 mph 14.0 mph 91% 0.00 in
09:09 54.8 °F 52.2 °F 30.03 in SSW 6.0 mph 14.0 mph 91% 0.01 in
09:14 55.0 °F 52.4 °F 30.02 in SSW 5.0 mph 16.0 mph 91% 0.01 in
09:19 55.1 °F 52.5 °F 30.02 in SSW 7.0 mph 11.0 mph 91% 0.01 in
09:24 55.2 °F 52.6 °F 30.02 in SSW 2.0 mph 14.0 mph 91% 0.01 in
09:29 55.3 °F 52.4 °F 30.02 in SW 3.0 mph 12.0 mph 90% 0.01 in
09:34 55.4 °F 52.5 °F 30.02 in SSW 7.0 mph 15.0 mph 90% 0.01 in
09:39 55.5 °F 52.6 °F 30.02 in SW 1.0 mph 12.0 mph 90% 0.01 in
09:44 55.7 °F 52.8 °F 30.02 in South 11.0 mph 14.0 mph 90% 0.01 in
09:49 55.9 °F 53.0 °F 30.03 in SW 10.0 mph 13.0 mph 90% 0.01 in
09:54 56.0 °F 53.1 °F 30.03 in WSW 10.0 mph 13.0 mph 90% 0.01 in
09:59 56.2 °F 53.0 °F 30.03 in SSW 5.0 mph 13.0 mph 89% 0.01 in
10:04 56.2 °F 53.0 °F 30.03 in SSW 5.0 mph 11.0 mph 89% 0.01 in
10:09 56.4 °F 53.2 °F 30.03 in SSW 5.0 mph 13.0 mph 89% 0.00 in
10:14 56.7 °F 53.5 °F 30.03 in SSW 5.0 mph 13.0 mph 89% 0.00 in
10:19 57.0 °F 53.5 °F 30.03 in SSW 5.0 mph 12.0 mph 88% 0.00 in
10:24 57.3 °F 53.8 °F 30.03 in SSW 10.0 mph 12.0 mph 88% 0.00 in
10:29 57.7 °F 53.9 °F 30.03 in SSW 5.0 mph 12.0 mph 87% 0.00 in
10:34 58.8 °F 54.3 °F 30.03 in SSW 6.0 mph 14.0 mph 85% 0.00 in
10:39 59.4 °F 53.9 °F 30.03 in SSW 8.0 mph 14.0 mph 82% 0.00 in
10:44 59.5 °F 53.7 °F 30.03 in SSW 6.0 mph 12.0 mph 81% 0.00 in
10:49 59.4 °F 53.6 °F 30.03 in South 7.0 mph 14.0 mph 81% 0.00 in
10:54 59.5 °F 53.7 °F 30.03 in SSW 7.0 mph 14.0 mph 81% 0.00 in
10:59 59.6 °F 53.8 °F 30.03 in SSW 5.0 mph 16.0 mph 81% 0.00 in
11:04 59.7 °F 53.9 °F 30.03 in SSW 7.0 mph 16.0 mph 81% 0.00 in
11:09 60.1 °F 53.9 °F 30.03 in SSW 6.0 mph 15.0 mph 80% 0.00 in
11:14 60.3 °F 53.8 °F 30.03 in SSW 7.0 mph 16.0 mph 79% 0.00 in
11:19 60.4 °F 54.2 °F 30.03 in SSW 7.0 mph 16.0 mph 80% 0.00 in
11:24 60.4 °F 53.9 °F 30.03 in SSW 5.0 mph 14.0 mph 79% 0.00 in
11:29 60.3 °F 53.8 °F 30.04 in SSW 5.0 mph 11.0 mph 79% 0.00 in
11:34 60.3 °F 53.8 °F 30.04 in SSW 6.0 mph 14.0 mph 79% 0.00 in
11:39 60.3 °F 53.8 °F 30.04 in SSW 8.0 mph 14.0 mph 79% 0.00 in
11:44 60.5 °F 53.6 °F 30.04 in South 3.0 mph 10.0 mph 78% 0.00 in
11:49 60.5 °F 53.6 °F 30.04 in South 2.0 mph 12.0 mph 78% 0.00 in
11:54 60.7 °F 53.8 °F 30.04 in South 4.0 mph 17.0 mph 78% 0.00 in
11:59 60.7 °F 53.8 °F 30.04 in SW 6.0 mph 14.0 mph 78% 0.00 in
12:04 60.7 °F 53.8 °F 30.05 in SSE 7.0 mph 13.0 mph 78% 0.00 in
12:09 60.7 °F 53.8 °F 30.04 in SSW 5.0 mph 13.0 mph 78% 0.00 in
12:14 61.0 °F 53.7 °F 30.04 in SSW 6.0 mph 13.0 mph 77% 0.00 in
12:19 61.3 °F 54.0 °F 30.04 in SSW 7.0 mph 17.0 mph 77% 0.00 in
12:24 61.5 °F 53.9 °F 30.04 in SSW 7.0 mph 17.0 mph 76% 0.00 in
12:29 61.6 °F 54.0 °F 30.04 in SSW 6.0 mph 13.0 mph 76% 0.00 in
12:34 61.5 °F 53.9 °F 30.03 in SSW 5.0 mph 12.0 mph 76% 0.00 in
12:39 61.3 °F 53.7 °F 30.03 in SW 5.0 mph 10.0 mph 76% 0.00 in
12:44 61.3 °F 54.0 °F 30.03 in SSW 3.0 mph 13.0 mph 77% 0.00 in
12:49 61.6 °F 54.3 °F 30.03 in SSE 4.0 mph 12.0 mph 77% 0.00 in
12:54 61.8 °F 54.2 °F 30.02 in SW 3.0 mph 11.0 mph 76% 0.00 in
12:59 62.0 °F 54.3 °F 30.02 in SW 5.0 mph 9.0 mph 76% 0.00 in
13:04 62.1 °F 54.4 °F 30.02 in South 5.0 mph 15.0 mph 76% 0.00 in
13:09 62.3 °F 54.3 °F 30.02 in South 4.0 mph 11.0 mph 75% 0.00 in
13:14 62.4 °F 54.4 °F 30.02 in SSW 5.0 mph 11.0 mph 75% 0.00 in
13:19 62.6 °F 54.6 °F 30.02 in SSW 4.0 mph 10.0 mph 75% 0.00 in
13:24 62.8 °F 54.4 °F 30.01 in SSW 5.0 mph 12.0 mph 74% 0.00 in
13:29 62.9 °F 54.5 °F 30.01 in SSW 5.0 mph 12.0 mph 74% 0.00 in
13:34 63.7 °F 55.3 °F 30.01 in SSW 4.0 mph 9.0 mph 74% 0.00 in
13:39 63.9 °F 55.1 °F 30.01 in SSW 4.0 mph 11.0 mph 73% 0.00 in
13:44 64.1 °F 55.3 °F 30.01 in SW 1.0 mph 12.0 mph 73% 0.00 in
13:49 64.0 °F 54.8 °F 30.01 in SE 4.0 mph 15.0 mph 72% 0.00 in
13:54 63.9 °F 54.7 °F 30.00 in SSW 1.0 mph 13.0 mph 72% 0.00 in
13:59 64.0 °F 54.8 °F 30.00 in South 4.0 mph 13.0 mph 72% 0.00 in
14:04 64.2 °F 55.0 °F 30.00 in South 8.0 mph 14.0 mph 72% 0.00 in
14:09 64.1 °F 54.9 °F 30.00 in West 3.0 mph 11.0 mph 72% 0.00 in
14:14 63.9 °F 54.7 °F 30.00 in WSW 4.0 mph 12.0 mph 72% 0.00 in
14:19 63.7 °F 54.5 °F 30.01 in SW 8.0 mph 19.0 mph 72% 0.00 in
14:24 63.6 °F 54.4 °F 30.01 in SSW 6.0 mph 19.0 mph 72% 0.00 in
14:29 63.4 °F 54.6 °F 30.01 in SW 6.0 mph 12.0 mph 73% 0.00 in
14:34 63.2 °F 54.4 °F 30.01 in SW 5.0 mph 11.0 mph 73% 0.00 in
14:39 63.1 °F 54.7 °F 30.01 in SW 4.0 mph 11.0 mph 74% 0.00 in
14:44 63.0 °F 54.6 °F 30.01 in SW 4.0 mph 10.0 mph 74% 0.00 in
14:49 63.0 °F 54.6 °F 30.01 in WSW 5.0 mph 11.0 mph 74% 0.00 in
14:54 63.0 °F 54.6 °F 30.01 in SW 4.0 mph 11.0 mph 74% 0.00 in
14:59 62.9 °F 54.5 °F 30.01 in SSW 7.0 mph 10.0 mph 74% 0.00 in
15:04 62.9 °F 54.5 °F 30.01 in South 7.0 mph 10.0 mph 74% 0.00 in
15:09 62.9 °F 54.5 °F 30.01 in South 6.0 mph 11.0 mph 74% 0.00 in
15:14 62.9 °F 54.9 °F 30.01 in WSW 7.0 mph 10.0 mph 75% 0.00 in
15:19 62.9 °F 54.5 °F 30.01 in SW 8.0 mph 13.0 mph 74% 0.00 in
15:24 62.9 °F 54.5 °F 30.01 in SSW 3.0 mph 8.0 mph 74% 0.00 in
15:29 63.0 °F 54.6 °F 30.01 in SW 4.0 mph 10.0 mph 74% 0.00 in
15:34 63.2 °F 54.8 °F 30.01 in SW 3.0 mph 10.0 mph 74% 0.00 in
15:39 63.4 °F 54.6 °F 30.01 in SSW 4.0 mph 9.0 mph 73% 0.00 in
15:44 63.5 °F 54.7 °F 30.01 in South 4.0 mph 9.0 mph 73% 0.00 in
15:49 63.7 °F 54.9 °F 30.01 in SSW 3.0 mph 8.0 mph 73% 0.00 in
15:54 63.7 °F 54.9 °F 30.01 in SSW 5.0 mph 9.0 mph 73% 0.00 in
15:59 63.6 °F 54.8 °F 30.01 in SSW 5.0 mph 10.0 mph 73% 0.00 in
16:04 63.6 °F 54.8 °F 30.01 in SSW 5.0 mph 11.0 mph 73% 0.00 in
16:09 63.6 °F 54.4 °F 30.01 in SSW 3.0 mph 13.0 mph 72% 0.00 in
16:14 63.6 °F 54.8 °F 30.01 in SSW 5.0 mph 11.0 mph 73% 0.00 in
16:19 63.6 °F 54.8 °F 30.01 in SW 6.0 mph 9.0 mph 73% 0.00 in
16:24 63.6 °F 54.4 °F 30.01 in SSW 5.0 mph 13.0 mph 72% 0.00 in
16:29 63.5 °F 54.7 °F 30.01 in SSW 5.0 mph 12.0 mph 73% 0.00 in
16:34 63.5 °F 54.3 °F 30.01 in SSW 5.0 mph 12.0 mph 72% 0.00 in
16:39 63.5 °F 54.7 °F 30.01 in SSW 5.0 mph 12.0 mph 73% 0.00 in
16:44 63.4 °F 54.6 °F 30.01 in SSW 5.0 mph 11.0 mph 73% 0.00 in
16:49 63.3 °F 54.5 °F 30.01 in SSW 5.0 mph 11.0 mph 73% 0.00 in
16:54 63.2 °F 54.4 °F 30.01 in SSW 6.0 mph 16.0 mph 73% 0.00 in
16:59 63.1 °F 54.3 °F 30.01 in SSW 6.0 mph 16.0 mph 73% 0.00 in
17:04 63.0 °F 54.2 °F 30.01 in SSW 3.0 mph 10.0 mph 73% 0.00 in
17:09 62.9 °F 54.1 °F 30.01 in SW 3.0 mph 10.0 mph 73% 0.00 in
17:14 62.9 °F 54.1 °F 30.01 in South 5.0 mph 12.0 mph 73% 0.00 in
17:19 62.7 °F 53.9 °F 30.01 in SSE 7.0 mph 12.0 mph 73% 0.00 in
17:24 62.7 °F 54.3 °F 30.01 in SSW 2.0 mph 9.0 mph 74% 0.00 in
17:29 62.6 °F 54.2 °F 30.01 in SSW 6.0 mph 10.0 mph 74% 0.00 in
17:34 62.5 °F 54.1 °F 30.01 in SSW 3.0 mph 9.0 mph 74% 0.00 in
17:39 62.4 °F 54.0 °F 30.01 in SSW 4.0 mph 8.0 mph 74% 0.00 in
17:44 62.3 °F 53.9 °F 30.01 in SSW 4.0 mph 15.0 mph 74% 0.00 in
17:49 62.1 °F 53.7 °F 30.01 in SSW 4.0 mph 15.0 mph 74% 0.00 in
17:54 61.9 °F 53.9 °F 30.01 in SSW 3.0 mph 8.0 mph 75% 0.00 in
17:59 61.7 °F 53.7 °F 30.00 in SSW 3.0 mph 8.0 mph 75% 0.00 in
18:04 61.6 °F 53.6 °F 30.00 in SSW 3.0 mph 7.0 mph 75% 0.00 in
18:09 61.6 °F 53.6 °F 30.00 in SSW 4.0 mph 12.0 mph 75% 0.00 in
18:14 61.6 °F 53.6 °F 30.00 in SSE 12.0 mph 14.0 mph 75% 0.00 in
18:19 61.5 °F 53.5 °F 30.00 in SSE 4.0 mph 12.0 mph 75% 0.00 in
18:24 61.5 °F 53.5 °F 30.00 in SSW 4.0 mph 12.0 mph 75% 0.00 in
18:29 61.4 °F 53.4 °F 30.00 in SSW 2.0 mph 13.0 mph 75% 0.00 in
18:34 61.3 °F 53.3 °F 30.00 in SW 4.0 mph 12.0 mph 75% 0.00 in
18:39 61.3 °F 53.3 °F 30.00 in South 5.0 mph 8.0 mph 75% 0.00 in
18:44 61.4 °F 53.4 °F 30.00 in SE 8.0 mph 12.0 mph 75% 0.00 in
18:49 61.4 °F 53.4 °F 30.00 in SSW 4.0 mph 12.0 mph 75% 0.00 in
18:54 61.4 °F 53.4 °F 30.00 in SSW 4.0 mph 10.0 mph 75% 0.00 in
18:59 61.5 °F 53.5 °F 30.00 in SSW 4.0 mph 10.0 mph 75% 0.00 in
19:04 61.5 °F 53.5 °F 30.00 in SSW 2.0 mph 7.0 mph 75% 0.00 in
19:09 61.4 °F 53.4 °F 30.00 in SSW 2.0 mph 11.0 mph 75% 0.00 in
19:14 61.6 °F 53.6 °F 30.00 in SSW 3.0 mph 8.0 mph 75% 0.00 in
19:19 61.8 °F 53.8 °F 30.00 in SSW 6.0 mph 15.0 mph 75% 0.00 in
19:24 61.8 °F 53.8 °F 30.00 in SSW 4.0 mph 15.0 mph 75% 0.00 in
19:29 62.0 °F 54.0 °F 30.00 in South 6.0 mph 11.0 mph 75% 0.00 in
19:34 62.0 °F 54.0 °F 30.00 in SSW 5.0 mph 10.0 mph 75% 0.00 in
19:39 62.1 °F 54.1 °F 30.00 in SSW 4.0 mph 9.0 mph 75% 0.00 in
19:44 62.0 °F 54.0 °F 30.00 in SSW 4.0 mph 9.0 mph 75% 0.00 in
19:49 62.0 °F 54.0 °F 30.00 in SSW 4.0 mph 12.0 mph 75% 0.00 in
19:54 62.0 °F 54.0 °F 30.00 in SSW 4.0 mph 12.0 mph 75% 0.00 in
19:59 62.0 °F 54.0 °F 29.99 in SSW 4.0 mph 11.0 mph 75% 0.00 in
20:04 62.1 °F 54.1 °F 29.99 in SSW 5.0 mph 12.0 mph 75% 0.00 in
20:09 62.2 °F 53.8 °F 29.99 in SSW 5.0 mph 12.0 mph 74% 0.00 in
20:14 62.4 °F 54.0 °F 29.99 in SSW 6.0 mph 14.0 mph 74% 0.00 in
20:19 62.3 °F 53.9 °F 29.99 in SSW 6.0 mph 14.0 mph 74% 0.00 in
20:24 62.4 °F 54.0 °F 29.99 in SW 2.0 mph 10.0 mph 74% 0.00 in
20:29 62.3 °F 53.9 °F 29.99 in SSW 5.0 mph 11.0 mph 74% 0.00 in
20:34 62.4 °F 54.0 °F 29.99 in WSW 2.0 mph 10.0 mph 74% 0.00 in
20:39 62.4 °F 54.0 °F 29.99 in SW 3.0 mph 9.0 mph 74% 0.00 in
20:44 62.5 °F 54.1 °F 29.99 in SW 4.0 mph 16.0 mph 74% 0.00 in
20:49 62.5 °F 54.1 °F 29.99 in WSW 8.0 mph 9.0 mph 74% 0.00 in
20:54 62.5 °F 54.1 °F 29.99 in SW 8.0 mph 12.0 mph 74% 0.00 in
20:59 62.5 °F 54.1 °F 29.99 in SW 3.0 mph 8.0 mph 74% 0.00 in
21:04 62.6 °F 54.2 °F 29.98 in SSW 5.0 mph 11.0 mph 74% 0.00 in
21:09 62.5 °F 54.1 °F 29.98 in SSW 5.0 mph 12.0 mph 74% 0.00 in
21:14 62.5 °F 54.1 °F 29.98 in SSW 4.0 mph 12.0 mph 74% 0.00 in
21:19 62.6 °F 54.2 °F 29.98 in SSW 5.0 mph 11.0 mph 74% 0.00 in
21:24 62.7 °F 54.3 °F 29.98 in SSW 5.0 mph 13.0 mph 74% 0.00 in
21:29 62.7 °F 54.3 °F 29.98 in SSW 5.0 mph 13.0 mph 74% 0.00 in
21:34 62.9 °F 54.5 °F 29.98 in SSW 4.0 mph 10.0 mph 74% 0.00 in
21:39 62.9 °F 54.5 °F 29.98 in WSW 6.0 mph 13.0 mph 74% 0.00 in
21:44 62.9 °F 54.5 °F 29.98 in South 5.0 mph 11.0 mph 74% 0.00 in
21:49 63.0 °F 54.2 °F 29.98 in SW 4.0 mph 9.0 mph 73% 0.00 in
21:54 63.1 °F 54.3 °F 29.98 in SW 8.0 mph 12.0 mph 73% 0.00 in
21:59 63.2 °F 54.4 °F 29.98 in SSW 7.0 mph 8.0 mph 73% 0.00 in
22:04 63.3 °F 54.5 °F 29.98 in SSW 7.0 mph 10.0 mph 73% 0.00 in
22:09 63.4 °F 54.6 °F 29.98 in SSW 5.0 mph 10.0 mph 73% 0.00 in
22:14 63.5 °F 54.3 °F 29.97 in SSW 5.0 mph 9.0 mph 72% 0.00 in
22:19 63.5 °F 54.3 °F 29.97 in SSW 5.0 mph 9.0 mph 72% 0.00 in
22:24 63.5 °F 54.7 °F 29.97 in SSW 5.0 mph 10.0 mph 73% 0.00 in
22:29 63.6 °F 54.4 °F 29.97 in SSW 5.0 mph 10.0 mph 72% 0.00 in
22:34 63.7 °F 54.5 °F 29.96 in SSW 5.0 mph 12.0 mph 72% 0.00 in
22:39 63.7 °F 54.5 °F 29.96 in SSW 6.0 mph 16.0 mph 72% 0.00 in
22:44 63.8 °F 54.6 °F 29.96 in South 5.0 mph 11.0 mph 72% 0.00 in
22:49 63.8 °F 54.6 °F 29.96 in SW 7.0 mph 10.0 mph 72% 0.00 in
22:54 63.9 °F 54.7 °F 29.96 in SSW 10.0 mph 15.0 mph 72% 0.00 in
22:59 64.0 °F 54.8 °F 29.96 in SSW 7.0 mph 12.0 mph 72% 0.00 in
23:04 64.0 °F 54.8 °F 29.96 in South 7.0 mph 13.0 mph 72% 0.00 in
23:09 64.1 °F 54.5 °F 29.95 in SSW 5.0 mph 12.0 mph 71% 0.00 in
23:19 64.2 °F 54.6 °F 29.95 in SSW 6.0 mph 14.0 mph 71% 0.00 in
23:24 64.2 °F 54.6 °F 29.95 in SW 5.0 mph 14.0 mph 71% 0.00 in
23:29 64.2 °F 54.6 °F 29.95 in SW 5.0 mph 13.0 mph 71% 0.00 in
23:34 64.1 °F 54.5 °F 29.95 in SSW 5.0 mph 13.0 mph 71% 0.00 in
23:39 64.2 °F 54.6 °F 29.95 in SW 6.0 mph 14.0 mph 71% 0.00 in
23:44 64.2 °F 54.6 °F 29.94 in SSW 1.0 mph 11.0 mph 71% 0.00 in
23:49 64.2 °F 54.6 °F 29.94 in SSW 3.0 mph 10.0 mph 71% 0.00 in
23:54 64.0 °F 54.8 °F 29.93 in SSW 5.0 mph 10.0 mph 72% 0.00 in
23:59 63.9 °F 54.7 °F 29.93 in SW 5.0 mph 10.0 mph 72% 0.00 in
Buffalo, New York, USA
Compliments of Weather Underground - 2.5 mb